createdAt,value
2023-02-17T00:01:33.133Z,73.01
2023-02-17T00:04:00.396Z,72.88
2023-02-17T00:06:47.998Z,73.02
2023-02-17T00:09:14.880Z,72.85
2023-02-17T00:11:42.202Z,73.18
2023-02-17T00:14:12.291Z,73.09
2023-02-17T00:16:39.182Z,73.59
2023-02-17T00:19:25.071Z,73.60
2023-02-17T00:21:57.701Z,74.15
2023-02-17T00:24:26.233Z,74.44
2023-02-17T00:26:53.396Z,74.69
2023-02-17T00:29:20.644Z,75.17
2023-02-17T00:31:48.089Z,75.73
2023-02-17T00:34:17.556Z,76.05
2023-02-17T00:36:44.561Z,76.47
2023-02-17T00:39:16.801Z,76.64
2023-02-17T00:41:43.988Z,77.22
2023-02-17T00:44:17.734Z,77.15
2023-02-17T00:46:45.431Z,77.68
2023-02-17T00:49:21.898Z,77.94
2023-02-17T00:51:51.196Z,77.94
2023-02-17T00:54:18.746Z,78.03
2023-02-17T00:56:46.086Z,78.33
2023-02-17T00:59:13.296Z,78.29
2023-02-17T01:01:40.298Z,78.33
2023-02-17T01:04:11.981Z,78.80
2023-02-17T01:06:40.004Z,78.97
2023-02-17T01:09:09.152Z,78.90
2023-02-17T01:11:39.530Z,79.36
2023-02-17T01:14:09.039Z,79.54
2023-02-17T01:16:38.770Z,79.58
2023-02-17T01:19:11.012Z,79.39
2023-02-17T01:21:38.174Z,79.65
2023-02-17T01:24:07.802Z,80.13
2023-02-17T01:26:36.859Z,80.04
2023-02-17T01:29:04.742Z,80.26
2023-02-17T01:31:31.690Z,80.06
2023-02-17T01:34:00.476Z,80.20
2023-02-17T01:36:27.529Z,80.23
2023-02-17T01:38:57.080Z,80.11
2023-02-17T01:41:28.916Z,80.21
2023-02-17T01:44:17.717Z,80.33
2023-02-17T01:46:48.042Z,80.53
2023-02-17T01:49:37.275Z,80.46
2023-02-17T01:52:06.116Z,80.71
2023-02-17T01:54:40.409Z,80.62
2023-02-17T01:57:10.076Z,80.41
2023-02-17T01:59:37.231Z,80.82
2023-02-17T02:02:05.558Z,80.74
2023-02-17T02:04:34.311Z,80.88
2023-02-17T02:07:06.817Z,80.86
2023-02-17T02:09:47.713Z,80.87
2023-02-17T02:12:22.804Z,81.06
2023-02-17T02:14:50.326Z,81.16
2023-02-17T02:17:33.126Z,81.27
2023-02-17T02:20:13.796Z,81.84
2023-02-17T02:23:10.227Z,81.78
2023-02-17T02:26:05.418Z,82.07
2023-02-17T02:29:11.609Z,82.48
2023-02-17T02:32:00.458Z,82.49
2023-02-17T02:34:34.743Z,82.84
2023-02-17T02:37:33.118Z,82.83
2023-02-17T02:40:01.801Z,83.11
2023-02-17T02:42:30.308Z,83.53
2023-02-17T02:44:57.511Z,83.58
2023-02-17T02:47:43.819Z,83.45
2023-02-17T02:50:15.598Z,83.92
2023-02-17T02:53:24.369Z,84.01
2023-02-17T02:56:03.292Z,84.15
2023-02-17T02:58:52.582Z,84.08
2023-02-17T03:02:00.441Z,84.28
2023-02-17T03:04:36.761Z,84.41
2023-02-17T03:07:11.832Z,84.55
2023-02-17T03:09:39.592Z,84.91
2023-02-17T03:12:06.945Z,84.91
2023-02-17T03:14:37.057Z,85.06
2023-02-17T03:17:04.434Z,85.13
2023-02-17T03:19:31.315Z,84.89
2023-02-17T03:22:05.100Z,85.23
2023-02-17T03:24:33.092Z,85.11
2023-02-17T03:26:59.942Z,85.36
2023-02-17T03:29:26.972Z,85.60
2023-02-17T03:31:53.912Z,85.80
2023-02-17T03:34:21.165Z,85.88
2023-02-17T03:36:48.134Z,85.63
2023-02-17T03:39:15.332Z,86.03
2023-02-17T03:41:42.080Z,85.99
2023-02-17T03:44:08.950Z,85.82
2023-02-17T03:46:36.286Z,86.02
2023-02-17T03:49:03.183Z,86.48
2023-02-17T03:51:29.968Z,86.38
2023-02-17T03:53:56.786Z,86.72
2023-02-17T03:56:23.559Z,86.64
2023-02-17T03:58:50.532Z,86.82
2023-02-17T04:01:17.540Z,86.44
2023-02-17T04:03:44.566Z,86.80
2023-02-17T04:06:11.995Z,87.04
2023-02-17T04:08:39.698Z,86.95
2023-02-17T04:11:08.060Z,87.11
2023-02-17T04:13:35.161Z,87.05
2023-02-17T04:16:04.693Z,87.19
2023-02-17T04:18:32.248Z,87.24
2023-02-17T04:20:59.077Z,87.49
2023-02-17T04:23:25.892Z,87.36
2023-02-17T04:25:52.888Z,87.71
2023-02-17T04:28:21.531Z,87.55
2023-02-17T04:30:50.584Z,87.83
2023-02-17T04:33:18.086Z,87.67
2023-02-17T04:35:45.610Z,88.04
2023-02-17T04:38:12.310Z,88.04
2023-02-17T04:40:39.201Z,87.90
2023-02-17T04:43:06.070Z,87.90
2023-02-17T04:45:32.853Z,88.13
2023-02-17T04:47:59.520Z,87.97
2023-02-17T04:50:29.639Z,88.16
2023-02-17T04:52:56.332Z,88.17
2023-02-17T04:55:23.081Z,87.97
2023-02-17T04:57:49.815Z,88.02
2023-02-17T05:00:16.829Z,88.28
2023-02-17T05:02:43.568Z,88.34
2023-02-17T05:05:10.520Z,88.18
2023-02-17T05:07:37.375Z,88.30
2023-02-17T05:10:04.349Z,88.78
2023-02-17T05:12:31.039Z,88.78
2023-02-17T05:14:57.844Z,88.77
2023-02-17T05:17:28.188Z,88.78
2023-02-17T05:19:58.368Z,88.67
2023-02-17T05:22:25.726Z,88.82
2023-02-17T05:24:52.433Z,88.80
2023-02-17T05:27:19.322Z,89.04
2023-02-17T05:29:46.457Z,89.17
2023-02-17T05:32:13.578Z,88.98
2023-02-17T05:34:40.244Z,89.23
2023-02-17T05:37:06.986Z,89.26
2023-02-17T05:39:33.659Z,89.23
2023-02-17T05:42:00.356Z,89.43
2023-02-17T05:44:27.302Z,89.14
2023-02-17T05:46:54.299Z,89.36
2023-02-17T05:49:21.124Z,89.56
2023-02-17T05:51:47.891Z,89.44
2023-02-17T05:54:14.593Z,89.40
2023-02-17T05:56:41.319Z,89.61
2023-02-17T05:59:07.981Z,89.95
2023-02-17T06:01:37.075Z,89.65
2023-02-17T06:04:04.774Z,89.58
2023-02-17T06:06:31.479Z,89.89
2023-02-17T06:08:58.182Z,89.77
2023-02-17T06:11:25.890Z,89.96
2023-02-17T06:13:52.563Z,89.74
2023-02-17T06:16:19.282Z,89.68
2023-02-17T06:18:45.957Z,89.78
2023-02-17T06:21:12.693Z,89.79
2023-02-17T06:23:39.346Z,89.83
2023-02-17T06:26:06.245Z,89.96
2023-02-17T06:28:35.069Z,90.15
2023-02-17T06:31:01.988Z,89.99
2023-02-17T06:33:28.894Z,90.16
2023-02-17T06:35:55.521Z,89.98
2023-02-17T06:38:22.192Z,89.85
2023-02-17T06:40:48.880Z,90.16
2023-02-17T06:43:15.623Z,90.02
2023-02-17T06:45:42.402Z,89.95
2023-02-17T06:48:09.137Z,90.01
2023-02-17T06:50:38.677Z,89.86
2023-02-17T06:53:05.391Z,89.88
2023-02-17T06:55:32.173Z,89.78
2023-02-17T06:57:58.888Z,89.78
2023-02-17T07:00:27.171Z,89.75
2023-02-17T07:02:54.042Z,90.02
2023-02-17T07:05:20.863Z,89.72
2023-02-17T07:07:47.557Z,89.85
2023-02-17T07:10:14.249Z,89.64
2023-02-17T07:12:45.011Z,89.47
2023-02-17T07:15:12.435Z,89.76
2023-02-17T07:17:39.340Z,89.60
2023-02-17T07:20:06.823Z,89.64
2023-02-17T07:22:33.490Z,89.41
2023-02-17T07:25:00.233Z,89.46
2023-02-17T07:27:27.012Z,89.57
2023-02-17T07:29:53.758Z,89.68
2023-02-17T07:32:20.535Z,89.45
2023-02-17T07:34:47.412Z,89.56
2023-02-17T07:37:16.230Z,89.50
2023-02-17T07:39:43.109Z,89.14
2023-02-17T07:42:10.080Z,89.34
2023-02-17T07:44:36.890Z,89.17
2023-02-17T07:47:03.733Z,88.99
2023-02-17T07:49:30.747Z,89.45
2023-02-17T07:51:57.680Z,89.44
2023-02-17T07:54:24.832Z,89.29
2023-02-17T07:56:54.076Z,88.88
2023-02-17T07:59:20.837Z,89.19
2023-02-17T08:01:48.032Z,89.03
2023-02-17T08:04:14.872Z,89.26
2023-02-17T08:06:41.562Z,88.92
2023-02-17T08:09:29.029Z,88.89
2023-02-17T08:12:14.582Z,88.93
2023-02-17T08:14:41.237Z,88.89
2023-02-17T08:17:08.066Z,88.81
2023-02-17T08:19:47.642Z,88.83
2023-02-17T08:22:16.884Z,88.85
2023-02-17T08:24:43.653Z,88.76
2023-02-17T08:27:10.377Z,88.57
2023-02-17T08:29:37.077Z,88.48
2023-02-17T08:32:04.326Z,88.59
2023-02-17T08:34:33.906Z,88.55
2023-02-17T08:37:01.845Z,88.85
2023-02-17T08:39:28.774Z,88.51
2023-02-17T08:41:55.705Z,88.66
2023-02-17T08:44:22.716Z,88.43
2023-02-17T08:46:50.673Z,88.64
2023-02-17T08:49:19.901Z,88.72
2023-02-17T08:51:47.740Z,88.90
2023-02-17T08:54:15.003Z,88.38
2023-02-17T08:56:42.439Z,88.48
2023-02-17T08:59:09.684Z,88.97
2023-02-17T09:01:37.246Z,88.77
2023-02-17T09:04:05.749Z,88.83
2023-02-17T09:06:43.458Z,89.00
2023-02-17T09:09:12.076Z,89.18
2023-02-17T09:11:39.062Z,88.82
2023-02-17T09:14:06.722Z,89.27
2023-02-17T09:16:33.871Z,89.32
2023-02-17T09:19:00.867Z,89.19
2023-02-17T09:21:27.800Z,89.32
2023-02-17T09:23:54.541Z,89.37
2023-02-17T09:26:21.419Z,89.43
2023-02-17T09:28:48.099Z,89.45
2023-02-17T09:31:19.570Z,89.33
2023-02-17T09:33:50.005Z,89.60
2023-02-17T09:36:22.645Z,89.69
2023-02-17T09:38:49.830Z,89.68
2023-02-17T09:41:42.690Z,89.67
2023-02-17T09:44:43.344Z,89.65
2023-02-17T09:47:39.395Z,90.07
2023-02-17T10:12:57.062Z,90.66
2023-02-17T10:15:49.171Z,90.54
2023-02-17T10:18:52.418Z,90.55
2023-02-17T10:21:26.243Z,90.54
2023-02-17T10:33:53.254Z,90.73
2023-02-17T10:36:41.210Z,90.97
2023-02-17T10:39:25.676Z,91.14
2023-02-17T10:42:03.885Z,91.15
2023-02-17T10:44:48.784Z,91.29
2023-02-17T10:50:52.150Z,91.27
2023-02-17T10:53:43.629Z,91.41
2023-02-17T10:56:43.702Z,91.28
2023-02-17T10:59:48.043Z,91.34
2023-02-17T11:02:46.615Z,91.22
2023-02-17T11:05:40.531Z,91.23
2023-02-17T11:08:30.693Z,91.31
2023-02-17T11:11:16.044Z,91.21
2023-02-17T11:14:31.335Z,91.40
2023-02-17T11:17:14.531Z,91.53
2023-02-17T11:19:54.904Z,91.29
2023-02-17T11:23:05.519Z,91.46
2023-02-17T11:25:34.737Z,91.29
2023-02-17T11:28:10.737Z,91.44
2023-02-17T11:30:41.200Z,91.34
2023-02-17T11:33:22.846Z,91.14
2023-02-17T11:35:53.401Z,90.88
2023-02-17T11:38:23.286Z,91.09
2023-02-17T11:41:00.363Z,91.07
2023-02-17T11:43:30.190Z,91.03
2023-02-17T11:46:31.225Z,90.83
2023-02-17T11:49:03.981Z,90.63
2023-02-17T11:51:55.623Z,90.83
2023-02-17T11:58:21.452Z,90.84
2023-02-17T12:01:37.180Z,90.72
2023-02-17T12:04:18.514Z,90.81
2023-02-17T12:43:56.633Z,89.22
2023-02-17T12:46:30.071Z,89.26
2023-02-17T12:49:01.949Z,89.41
2023-02-17T12:51:42.160Z,89.25
2023-02-17T12:54:23.889Z,89.07
2023-02-17T12:56:57.845Z,88.60
2023-02-17T12:59:33.150Z,88.44
2023-02-17T13:02:07.804Z,88.49
2023-02-17T13:04:38.182Z,88.75
2023-02-17T13:10:30.518Z,88.30
2023-02-17T13:13:04.266Z,88.20
2023-02-17T13:15:36.277Z,88.55
2023-02-17T13:18:31.606Z,88.21
2023-02-17T13:21:27.803Z,88.03
2023-02-17T13:24:15.830Z,87.91
2023-02-17T13:26:45.596Z,87.95
2023-02-17T13:29:19.991Z,87.84
2023-02-17T13:31:50.833Z,87.48
2023-02-17T13:34:44.631Z,87.38
2023-02-17T13:37:28.405Z,87.40
2023-02-17T13:40:01.558Z,87.44
2023-02-17T13:42:36.205Z,86.99
2023-02-17T13:45:14.765Z,86.88
2023-02-17T13:47:43.476Z,87.06
2023-02-17T13:50:44.464Z,86.62
2023-02-17T13:53:20.653Z,86.76
2023-02-17T13:55:47.389Z,86.86
2023-02-17T13:58:51.138Z,86.66
2023-02-17T14:01:37.380Z,86.92
2023-02-17T14:04:05.138Z,86.78
2023-02-17T14:06:40.584Z,87.08
2023-02-17T14:09:24.316Z,87.41
2023-02-17T14:11:52.618Z,87.14
2023-02-17T14:14:46.836Z,87.32
2023-02-17T14:17:33.418Z,87.57
2023-02-17T14:20:06.742Z,87.98
2023-02-17T14:23:03.417Z,87.95
2023-02-17T14:26:36.107Z,88.18
2023-02-17T14:29:19.904Z,88.44
2023-02-17T14:31:53.072Z,88.82
2023-02-17T14:34:37.487Z,88.80
2023-02-17T14:37:26.983Z,89.10
2023-02-17T14:40:04.059Z,89.43
2023-02-17T14:42:48.166Z,89.65
2023-02-17T14:59:23.037Z,90.37
2023-02-17T15:02:06.764Z,90.82
2023-02-17T15:04:51.282Z,90.93
2023-02-17T15:07:55.594Z,91.04
2023-02-17T15:10:28.917Z,91.07
2023-02-17T15:12:57.111Z,91.15
2023-02-17T15:19:52.181Z,91.34
2023-02-17T15:22:22.131Z,91.24
2023-02-17T16:13:52.826Z,90.96
2023-02-17T16:16:57.395Z,90.63
2023-02-17T16:20:02.416Z,90.48
2023-02-17T16:22:31.624Z,90.29
2023-02-17T16:24:58.282Z,89.83
2023-02-17T16:27:25.312Z,89.93
2023-02-17T16:30:09.715Z,89.60
2023-02-17T16:38:52.604Z,89.68
2023-02-17T16:41:20.440Z,89.38
2023-02-17T16:43:47.700Z,89.27
2023-02-17T16:46:31.597Z,88.86
2023-02-17T16:49:03.852Z,88.64
2023-02-17T16:51:30.942Z,88.64
2023-02-17T16:53:58.223Z,88.54
2023-02-17T16:56:30.631Z,88.32
2023-02-17T16:58:57.505Z,88.01
2023-02-17T17:01:25.719Z,87.28
2023-02-17T17:03:52.628Z,87.01
2023-02-17T17:06:27.271Z,86.75
2023-02-17T17:08:54.690Z,86.21
2023-02-17T17:11:24.397Z,86.24
2023-02-17T17:13:52.325Z,85.92
2023-02-17T17:16:26.094Z,85.48
2023-02-17T17:18:52.926Z,85.16
2023-02-17T17:21:20.071Z,85.13
2023-02-17T17:23:47.014Z,84.71
2023-02-17T17:26:39.386Z,84.29
2023-02-17T17:29:07.894Z,83.77
2023-02-17T17:31:34.745Z,83.68
2023-02-17T17:34:01.482Z,83.48
2023-02-17T17:36:30.631Z,83.96
2023-02-17T17:38:58.171Z,84.25
2023-02-17T17:41:27.265Z,84.93
2023-02-17T17:43:57.503Z,85.07
2023-02-17T17:46:36.283Z,85.47
2023-02-17T17:49:05.207Z,85.87
2023-02-17T17:51:32.879Z,86.45
2023-02-17T17:53:59.962Z,87.52
2023-02-17T17:56:30.226Z,88.03
2023-02-17T17:58:59.008Z,88.50
2023-02-17T18:01:26.536Z,88.84
2023-02-17T18:03:53.301Z,89.05
2023-02-17T18:06:25.176Z,89.18
2023-02-17T18:08:53.268Z,88.64
2023-02-17T18:11:21.175Z,87.89
2023-02-17T18:13:50.847Z,87.37
2023-02-17T18:16:19.745Z,86.07
2023-02-17T18:18:46.840Z,84.80
2023-02-17T18:21:13.640Z,82.93
2023-02-17T18:23:40.369Z,81.64
2023-02-17T18:26:08.755Z,81.16
2023-02-17T18:28:36.613Z,78.21
2023-02-17T18:31:08.437Z,78.23
2023-02-17T18:33:35.514Z,77.22
2023-02-17T18:36:12.839Z,76.16
2023-02-17T18:38:39.691Z,75.42
2023-02-17T18:41:06.939Z,75.37
2023-02-17T18:43:33.901Z,75.16
2023-02-17T18:46:00.775Z,74.60
2023-02-17T18:48:27.549Z,73.96
2023-02-17T18:50:54.257Z,73.72
2023-02-17T18:53:23.463Z,73.42
2023-02-17T18:55:50.177Z,73.23
2023-02-17T18:58:17.647Z,72.63
2023-02-17T19:00:44.338Z,72.63
2023-02-17T19:03:11.051Z,72.79
2023-02-17T19:05:37.765Z,72.88
2023-02-17T19:08:04.744Z,73.02
2023-02-17T19:10:31.462Z,72.90
2023-02-17T19:12:58.164Z,72.19
2023-02-17T19:15:24.936Z,72.05
2023-02-17T19:17:58.496Z,71.61
2023-02-17T19:20:28.802Z,71.65
2023-02-17T19:22:55.598Z,70.80
2023-02-17T19:25:22.349Z,70.29
2023-02-17T19:27:49.081Z,70.20
2023-02-17T19:30:17.668Z,69.71
2023-02-17T19:32:44.351Z,68.08
2023-02-17T19:35:11.754Z,68.08
2023-02-17T19:37:38.581Z,67.65
2023-02-17T19:40:05.963Z,66.66
2023-02-17T19:42:32.818Z,67.02
2023-02-17T19:44:59.528Z,67.07
2023-02-17T19:47:26.287Z,67.31
2023-02-17T19:49:52.983Z,67.52
2023-02-17T19:52:21.136Z,67.44
2023-02-17T19:54:49.556Z,67.74
2023-02-17T19:57:18.434Z,68.07
2023-02-17T19:59:45.975Z,67.72
2023-02-17T20:02:14.599Z,68.37
2023-02-17T20:04:42.125Z,68.92
2023-02-17T20:07:08.860Z,68.82
2023-02-17T20:09:35.633Z,68.20
2023-02-17T20:12:02.562Z,68.16
2023-02-17T22:09:47.068Z,70.02
2023-02-17T22:23:06.855Z,70.12
2023-02-17T22:25:58.565Z,70.04
2023-02-17T22:54:21.050Z,70.30
2023-02-17T23:51:06.101Z,71.33
